Nearby METAR Reports

 

KMSY - New Orleans,Louisiana, USA
Distance from station: E 11.7mi, 18.8km
Updated: Tue, 28-Jan-2020 5:53pm CST
Partly cloudy
Partly cloudy
 Wind from ESE
Wind: ESE 14 mph , 22 km/h
Temperature: 59°F , 15°C
Dew Point: 50°F , 10°C
Humidity: 72%
Barometer: 29.94 inHg , 1013.9 hPa
Clouds: Partly cloudy
Visibility: 10 miles , 16 km
Cloud details: Few Clouds 3600 ft
Partly cloudy 12000 ft
Partly cloudy 25000 ft
2020/01/28 23:53 KMSY 282353Z 12012KT 10SM FEW036 SCT120 SCT250 15/10 A2994 RMK AO2 SLP140 T01500100 10189 20150 55010
KAPS - Reserve,Louisiana, USA
Distance from station: W 8.4mi, 13.5km
Updated: Tue, 28-Jan-2020 5:55pm CST
Partly cloudy
Partly cloudy
 Wind from SE
Wind: SE 6 mph , 9 km/h
Temperature: 59°F , 15°C
Dew Point: 50°F , 10°C
Humidity: 72%
Barometer: 29.93 inHg , 1013.5 hPa
Clouds: Partly cloudy
Visibility: 10 miles , 16 km
Cloud details: Partly cloudy 12000 ft
2020/01/28 23:55 KAPS 282355Z AUTO 14005KT 10SM SCT120 15/10 A2993 RMK AO2 T01450100 10210 20145
 
KHDC - Hammond,Louisiana, USA
Distance from station: N 31.5mi, 50.6km
Updated: Tue, 28-Jan-2020 5:55pm CST
Partly cloudy
Partly cloudy
 Wind from SE
Wind: SE 7 mph , 11 km/h
Temperature: 55°F , 13°C
Dew Point: 48°F , 9°C
Humidity: 77%
Barometer: 29.94 inHg , 1013.9 hPa
Clouds: Partly cloudy
Visibility: 10 miles , 16 km
Cloud details: Partly cloudy 12000 ft
2020/01/28 23:55 KHDC 282355Z AUTO 14006KT 10SM SCT120 13/09 A2994 RMK AO2
KHUM - Houma,Louisiana, USA
Distance from station: SW 36.54mi, 58.8km
Updated: Tue, 28-Jan-2020 5:47pm CST
Mostly cloudy
Mostly cloudy
 Wind from ESE
Wind: ESE 9 mph , 15 km/h
Temperature: 61°F , 16°C
Dew Point: 52°F , 11°C
Humidity: 72%
Barometer: 29.94 inHg , 1013.9 hPa
Clouds: Mostly cloudy
Visibility: 7 miles , 11 km
Cloud details: Mostly cloudy 3300 ft
2020/01/28 23:47 KHUM 282347Z 11008KT 7SM BKN033 16/11 A2994